This is the latest recevied weather packets stored in our database for station/object K0JSC-13. If no packets are shown the sender has not sent any weather packets the latest 10 day(s).
| Time | Temp. | Humidity | Pressure | Rain* | Wind** | Luminosity | Snow |
|---|---|---|---|---|---|---|---|
| 1777262537 | 11.11° C | 50% | 984.3 hPa | 0 mm | - | - | - |
| 1777259883 | 12.22° C | 46% | 983.4 hPa | 0 mm | - | - | - |
| 1777255743 | 13.33° C | 44% | 982 hPa | 0 mm | - | - | - |
| 1777255338 | 13.33° C | 43% | 981.8 hPa | 0 mm | - | - | - |
| 1777249083 | 18.33° C | 27% | 980 hPa | 0 mm | - | - | - |
| 1777248004 | 18.89° C | 25% | 979.8 hPa | 0 mm | - | - | - |
| 1777242557 | 20° C | 22% | 979.1 hPa | 0 mm | - | - | - |
| 1777241883 | 20° C | 22% | 979.1 hPa | 0 mm | - | - | - |
| 1777238418 | 21.11° C | 23% | 979.4 hPa | 0 mm | - | - | - |
| 1777232164 | 17.22° C | 45% | 981.2 hPa | 0 mm | - | - | - |
| 1777230137 | 15.56° C | 52% | 982.2 hPa | 0.25 mm | - | - | - |
| 1777226043 | 9.44° C | 71% | 984.5 hPa | 0.25 mm | - | - | - |
| 1777222443 | 10° C | 67% | 985.3 hPa | 0 mm | - | - | - |
| 1777220283 | 9.44° C | 69% | 986.2 hPa | 0 mm | - | - | - |
| 1777210023 | 3.89° C | 87% | 989.4 hPa | 0 mm | - | - | - |
| 1777208403 | 4.44° C | 85% | 989.1 hPa | 0 mm | - | - | - |
| 1777203363 | 5° C | 78% | 988.8 hPa | 0 mm | - | - | - |
| 1777198684 | 5.56° C | 75% | 989.7 hPa | 0 mm | - | - | - |
| 1777191484 | 6.67° C | 67% | 989.8 hPa | 0 mm | - | - | - |
| 1777190043 | 7.22° C | 65% | 989.8 hPa | 0 mm | - | - | - |
| 1777189503 | 7.22° C | 65% | 990.1 hPa | 0 mm | - | - | - |
| 1777184283 | 8.89° C | 57% | 990 hPa | 0 mm | - | - | - |
| 1777182438 | 10° C | 53% | 990.2 hPa | 0 mm | - | - | - |
| 1777181223 | 10.56° C | 51% | 990 hPa | 0 mm | - | - | - |
| 1777167903 | 15.56° C | 30% | 986.4 hPa | 0 mm | - | - | - |
* Rain latest hour (hover to see other rain measurements)
** Current wind speed in m/s (hover to see current wind gust speed)